Time;durP1;ratioP1;P1;durP2;ratioP2;P2;SDS_P1;SDS_P2;PMS_P1;PMS_P2;Temp;Humidity;BMP_temperature;BMP_pressure;BME280_temperature;BME280_humidity;BME280_pressure;Samples;Min_cycle;Max_cycle;Signal;HPM_P1;HPM_P2
2021/08/09 00:01:58;;;;;;;5.83;2.10;;;15.20;99.90;;;;;;5046310;28;20365;-49
2021/08/09 00:04:26;;;;;;;2.43;1.80;;;15.20;99.90;;;;;;5046417;28;20309;-49
2021/08/09 00:06:52;;;;;;;6.87;2.40;;;15.10;99.90;;;;;;5045844;28;20241;-48
2021/08/09 00:09:19;;;;;;;10.80;2.50;;;15.10;99.90;;;;;;5047025;28;20605;-47
2021/08/09 00:11:46;;;;;;;4.70;2.17;;;15.00;99.90;;;;;;5046059;28;20289;-48
2021/08/09 00:14:13;;;;;;;7.83;2.33;;;14.90;99.90;;;;;;5046644;28;20592;-49
2021/08/09 00:16:40;;;;;;;5.27;1.70;;;15.00;99.90;;;;;;5046248;28;20648;-49
2021/08/09 00:19:07;;;;;;;3.97;1.77;;;15.00;99.90;;;;;;5046060;28;20293;-48
2021/08/09 00:21:34;;;;;;;9.07;2.30;;;14.90;99.90;;;;;;5046614;28;20277;-48
2021/08/09 00:24:01;;;;;;;5.23;2.03;;;14.90;99.90;;;;;;5046492;28;20293;-48
2021/08/09 00:26:29;;;;;;;4.50;2.30;;;14.90;99.90;;;;;;5046570;28;20232;-48
2021/08/09 00:28:57;;;;;;;6.37;1.87;;;14.90;99.90;;;;;;5046785;28;20230;-49
2021/08/09 00:31:23;;;;;;;5.40;2.20;;;14.90;99.90;;;;;;5046175;28;20220;-48
2021/08/09 00:33:50;;;;;;;3.73;2.40;;;14.90;99.90;;;;;;5046152;28;20208;-48
2021/08/09 00:36:18;;;;;;;5.80;2.43;;;14.90;99.90;;;;;;5046353;28;20227;-48
2021/08/09 00:38:45;;;;;;;6.10;2.20;;;14.90;99.90;;;;;;5047047;28;20208;-48
2021/08/09 00:41:12;;;;;;;4.93;1.87;;;14.90;99.90;;;;;;5045644;28;20232;-48
2021/08/09 00:43:38;;;;;;;4.03;2.47;;;14.90;99.90;;;;;;5046487;28;20700;-48
2021/08/09 00:46:05;;;;;;;5.87;2.10;;;14.90;99.90;;;;;;5046764;28;20210;-48
2021/08/09 00:48:36;;;;;;;6.00;2.00;;;15.00;99.90;;;;;;5046336;28;20210;-47
2021/08/09 00:51:03;;;;;;;5.47;1.87;;;15.00;99.90;;;;;;5046043;28;20399;-48
2021/08/09 00:53:30;;;;;;;4.90;1.43;;;15.00;99.90;;;;;;5045536;28;20233;-48
2021/08/09 00:55:57;;;;;;;6.40;1.90;;;14.80;99.90;;;;;;5045524;28;20641;-48
2021/08/09 00:58:24;;;;;;;4.47;1.63;;;14.80;99.90;;;;;;5046095;28;20307;-48
2021/08/09 01:00:51;;;;;;;6.60;2.00;;;14.90;99.90;;;;;;5046062;28;20286;-48
2021/08/09 01:03:18;;;;;;;3.73;1.93;;;14.90;99.90;;;;;;5046181;28;20221;-48
2021/08/09 01:05:48;;;;;;;6.73;2.83;;;15.00;99.90;;;;;;5044662;28;20294;-48
2021/08/09 01:08:55;;;;;;;6.87;1.93;;;15.00;99.90;;;;;;5046106;28;20211;-49
2021/08/09 01:11:26;;;;;;;4.83;2.00;;;14.90;99.90;;;;;;5045879;28;20288;-49
2021/08/09 01:14:05;;;;;;;3.87;1.87;;;14.80;99.90;;;;;;5045408;28;20207;-49
2021/08/09 01:16:35;;;;;;;6.23;1.80;;;14.90;99.90;;;;;;5044872;28;20199;-48
2021/08/09 01:19:27;;;;;;;3.60;1.70;;;14.90;99.90;;;;;;5045104;28;21202;-48
2021/08/09 01:22:06;;;;;;;4.37;1.87;;;14.90;99.90;;;;;;5006569;28;20252;-48
2021/08/09 01:24:38;;;;;;;4.77;2.10;;;14.80;99.90;;;;;;5005496;28;20292;-48
2021/08/09 01:27:26;;;;;;;4.87;2.20;;;14.80;99.90;;;;;;5009033;28;20299;-48
2021/08/09 01:29:56;;;;;;;5.13;2.10;;;14.80;99.90;;;;;;5010135;28;20221;-48
2021/08/09 01:32:24;;;;;;;6.33;2.27;;;14.70;99.90;;;;;;5010210;28;20280;-49
2021/08/09 01:34:52;;;;;;;7.40;2.40;;;14.70;99.90;;;;;;5008235;28;20673;-48
2021/08/09 01:37:20;;;;;;;5.77;2.10;;;14.80;99.90;;;;;;5010320;28;20703;-47
2021/08/09 01:39:48;;;;;;;3.30;1.83;;;14.80;99.90;;;;;;5008949;28;20254;-48
2021/08/09 01:42:16;;;;;;;5.53;2.03;;;14.80;99.90;;;;;;5010347;28;20661;-50
2021/08/09 01:44:43;;;;;;;5.47;1.83;;;14.80;99.90;;;;;;5010065;28;20640;-48
2021/08/09 01:47:10;;;;;;;4.53;2.00;;;14.70;99.90;;;;;;5009919;28;20646;-47
2021/08/09 01:49:39;;;;;;;5.30;2.20;;;14.70;99.90;;;;;;5008496;28;20621;-47
2021/08/09 01:52:07;;;;;;;6.97;1.90;;;14.70;99.90;;;;;;5009647;28;20231;-47
2021/08/09 01:54:34;;;;;;;4.03;1.87;;;14.70;99.90;;;;;;5007174;28;20587;-47
2021/08/09 01:57:03;;;;;;;4.83;1.83;;;14.60;99.90;;;;;;5008834;28;20236;-47
2021/08/09 01:59:30;;;;;;;4.90;2.13;;;14.70;99.90;;;;;;5009072;28;20298;-48
2021/08/09 02:01:57;;;;;;;5.57;2.20;;;14.70;99.90;;;;;;5001247;28;20322;-47
2021/08/09 02:04:24;;;;;;;6.53;2.50;;;14.70;99.90;;;;;;5009798;28;20212;-48
2021/08/09 02:06:50;;;;;;;3.37;1.67;;;14.70;99.90;;;;;;5009190;28;20311;-48
2021/08/09 02:09:17;;;;;;;6.10;2.40;;;14.80;99.90;;;;;;5009941;28;20260;-48
2021/08/09 02:12:01;;;;;;;5.63;1.77;;;14.60;99.90;;;;;;5008589;28;20254;-47
2021/08/09 02:14:32;;;;;;;2.13;1.30;;;14.60;99.90;;;;;;5008884;28;20235;-50
2021/08/09 02:17:10;;;;;;;7.97;2.57;;;14.60;99.90;;;;;;5008217;28;20279;-47
2021/08/09 02:19:46;;;;;;;4.70;1.77;;;14.70;99.90;;;;;;5011191;28;20262;-48
2021/08/09 02:22:30;;;;;;;7.80;2.47;;;14.70;99.90;;;;;;5048758;28;20285;-47
2021/08/09 02:25:04;;;;;;;6.40;2.03;;;14.80;99.90;;;;;;5039813;28;20306;-48
2021/08/09 02:27:46;;;;;;;4.77;1.77;;;14.60;99.90;;;;;;5048362;28;20197;-50
2021/08/09 02:30:16;;;;;;;6.27;2.13;;;14.70;99.90;;;;;;5048574;28;20218;-48
2021/08/09 02:32:44;;;;;;;7.73;2.50;;;14.70;99.90;;;;;;5049312;28;20261;-48
2021/08/09 02:35:15;;;;;;;4.03;1.67;;;14.70;99.90;;;;;;5048595;28;20207;-48
2021/08/09 02:37:43;;;;;;;4.63;1.90;;;14.60;99.90;;;;;;5048435;28;20247;-48
2021/08/09 02:40:11;;;;;;;4.57;2.20;;;14.70;99.90;;;;;;5040306;28;20753;-48
2021/08/09 02:42:39;;;;;;;5.67;1.70;;;14.70;99.90;;;;;;5048939;28;20321;-48
2021/08/09 02:45:07;;;;;;;6.77;2.07;;;14.80;99.90;;;;;;5047831;28;20204;-47
2021/08/09 02:47:37;;;;;;;7.03;2.13;;;14.70;99.90;;;;;;5048236;28;20245;-48
2021/08/09 02:50:08;;;;;;;4.63;2.07;;;14.60;99.90;;;;;;5048186;28;20231;-48
2021/08/09 02:52:37;;;;;;;4.50;1.87;;;14.50;99.90;;;;;;5048709;28;20340;-48
2021/08/09 02:55:04;;;;;;;4.10;1.50;;;14.60;99.90;;;;;;5046125;28;20813;-49
2021/08/09 02:57:32;;;;;;;4.13;1.70;;;14.70;99.90;;;;;;5048273;28;20233;-49
2021/08/09 03:00:00;;;;;;;5.63;1.87;;;14.80;99.90;;;;;;5047515;28;20298;-48
2021/08/09 03:02:29;;;;;;;5.60;1.97;;;14.80;99.90;;;;;;5048341;28;20721;-48
2021/08/09 03:04:57;;;;;;;4.43;1.80;;;14.70;99.90;;;;;;5047336;28;20252;-49
2021/08/09 03:07:25;;;;;;;4.03;2.17;;;14.70;99.90;;;;;;5048297;28;20298;-48
2021/08/09 03:09:52;;;;;;;4.80;2.00;;;14.80;99.90;;;;;;5048175;28;20235;-48
2021/08/09 03:12:18;;;;;;;4.07;2.33;;;14.90;99.90;;;;;;5048944;28;20733;-49
2021/08/09 03:14:50;;;;;;;5.80;1.80;;;14.80;99.90;;;;;;5048035;28;20519;-48
2021/08/09 03:17:18;;;;;;;8.47;2.07;;;14.90;99.90;;;;;;5048198;28;20217;-48
2021/08/09 03:19:45;;;;;;;5.13;1.67;;;14.70;99.90;;;;;;5047362;28;20307;-49
2021/08/09 03:22:11;;;;;;;3.23;1.90;;;14.70;99.90;;;;;;5047742;28;20299;-49
2021/08/09 03:24:39;;;;;;;4.63;1.60;;;14.70;99.90;;;;;;5046998;28;20206;-48
2021/08/09 03:27:06;;;;;;;5.67;1.70;;;14.70;99.90;;;;;;5048211;28;20674;-49
2021/08/09 03:29:33;;;;;;;7.00;1.60;;;14.70;99.90;;;;;;5047754;28;20206;-49
2021/08/09 03:31:59;;;;;;;6.50;2.33;;;14.70;99.90;;;;;;5047731;28;20251;-49
2021/08/09 03:34:26;;;;;;;4.93;2.03;;;14.70;99.90;;;;;;5046865;28;20995;-48
2021/08/09 03:36:53;;;;;;;6.10;2.40;;;14.70;99.90;;;;;;5048160;28;20217;-48
2021/08/09 03:39:21;;;;;;;3.77;1.87;;;14.70;99.90;;;;;;5046174;28;20515;-48
2021/08/09 03:41:48;;;;;;;6.07;1.70;;;14.70;99.90;;;;;;5048256;28;20635;-48
2021/08/09 03:44:14;;;;;;;7.40;2.30;;;14.90;99.90;;;;;;5046582;28;20250;-49
2021/08/09 03:46:41;;;;;;;5.40;2.30;;;14.80;99.90;;;;;;5047710;28;20290;-49
2021/08/09 03:49:09;;;;;;;7.37;2.03;;;14.90;99.90;;;;;;5046282;28;20208;-48
2021/08/09 03:51:38;;;;;;;2.77;1.87;;;14.60;99.90;;;;;;5047828;28;20275;-48
2021/08/09 03:54:05;;;;;;;6.87;1.90;;;14.60;99.90;;;;;;5046366;28;20678;-48
2021/08/09 03:56:33;;;;;;;8.70;2.30;;;14.60;99.90;;;;;;5046619;28;20247;-48
2021/08/09 03:59:00;;;;;;;7.57;2.70;;;14.70;99.90;;;;;;5047023;28;20666;-49
2021/08/09 04:01:27;;;;;;;6.70;2.00;;;14.70;99.90;;;;;;5047180;28;20629;-48
2021/08/09 04:03:54;;;;;;;4.47;1.77;;;14.70;99.90;;;;;;5046620;28;20735;-48
2021/08/09 04:06:21;;;;;;;4.00;2.03;;;14.70;99.90;;;;;;5047016;28;20676;-48
2021/08/09 04:08:49;;;;;;;9.03;2.33;;;14.70;99.90;;;;;;5046790;28;20297;-48
2021/08/09 04:11:16;;;;;;;7.43;2.20;;;14.80;99.90;;;;;;5047112;28;20234;-48
2021/08/09 04:13:43;;;;;;;3.87;1.70;;;14.80;99.90;;;;;;5047100;28;20802;-48
2021/08/09 04:16:10;;;;;;;5.03;2.27;;;14.60;99.90;;;;;;5046906;28;20588;-48
2021/08/09 04:18:38;;;;;;;4.90;1.80;;;14.80;99.90;;;;;;5047110;28;20637;-48
2021/08/09 04:21:05;;;;;;;7.13;1.73;;;14.70;99.90;;;;;;5046124;28;20269;-48
2021/08/09 04:23:32;;;;;;;7.27;2.00;;;14.70;99.90;;;;;;5046068;28;20261;-48
2021/08/09 04:25:59;;;;;;;5.27;1.80;;;14.80;99.90;;;;;;5046772;28;20239;-49
2021/08/09 04:28:26;;;;;;;7.97;2.10;;;14.80;99.90;;;;;;5046617;28;20239;-48
2021/08/09 04:30:53;;;;;;;7.40;2.60;;;14.80;99.90;;;;;;5046945;28;20204;-48
2021/08/09 04:33:19;;;;;;;6.90;2.10;;;14.80;99.90;;;;;;5046194;28;20291;-48
2021/08/09 04:35:55;;;;;;;7.33;2.90;;;14.80;99.90;;;;;;5045894;28;20313;-48
2021/08/09 04:38:22;;;;;;;6.93;2.00;;;14.80;99.90;;;;;;5046867;28;20239;-48
2021/08/09 04:40:48;;;;;;;9.50;2.43;;;14.80;99.90;;;;;;5045604;28;20204;-48
2021/08/09 04:43:15;;;;;;;5.67;2.30;;;14.80;99.90;;;;;;5046783;28;20219;-48
2021/08/09 04:45:42;;;;;;;5.93;2.10;;;14.70;99.90;;;;;;5046134;28;20659;-48
2021/08/09 04:48:09;;;;;;;5.17;1.90;;;14.90;99.90;;;;;;5046368;28;20212;-48
2021/08/09 04:50:38;;;;;;;6.50;2.43;;;14.90;99.90;;;;;;5045749;28;20211;-48
2021/08/09 04:53:09;;;;;;;4.30;1.97;;;14.90;99.90;;;;;;5045691;28;20215;-48
2021/08/09 04:55:36;;;;;;;10.97;2.37;;;14.90;99.90;;;;;;5045176;28;20229;-48
2021/08/09 04:58:04;;;;;;;7.37;2.00;;;14.90;99.90;;;;;;5047076;28;20243;-48
2021/08/09 05:00:31;;;;;;;5.03;2.10;;;15.10;99.90;;;;;;5044913;28;20268;-48
2021/08/09 05:02:59;;;;;;;5.90;1.77;;;15.00;99.90;;;;;;5046624;28;20235;-49
2021/08/09 05:05:26;;;;;;;3.80;2.10;;;15.00;99.90;;;;;;5045788;28;20280;-48
2021/08/09 05:07:54;;;;;;;6.93;1.90;;;15.00;99.90;;;;;;5048803;28;20239;-49
2021/08/09 05:10:22;;;;;;;5.93;1.80;;;15.00;99.90;;;;;;5049506;28;20241;-47
2021/08/09 05:12:49;;;;;;;9.30;2.00;;;14.90;99.90;;;;;;5049956;28;20236;-48
2021/08/09 05:15:16;;;;;;;7.33;1.77;;;15.00;99.90;;;;;;5048755;28;20259;-47
2021/08/09 05:17:43;;;;;;;5.60;1.93;;;15.00;99.90;;;;;;5047641;28;20601;-48
2021/08/09 05:20:10;;;;;;;4.63;1.97;;;15.20;99.90;;;;;;5046396;28;20386;-47
2021/08/09 05:22:37;;;;;;;7.57;3.00;;;15.20;99.90;;;;;;5044989;28;20238;-47
2021/08/09 05:25:09;;;;;;;6.37;2.17;;;15.20;99.90;;;;;;5045513;28;20677;-48
2021/08/09 05:27:37;;;;;;;6.73;2.53;;;15.30;99.90;;;;;;5045346;28;20204;-50
2021/08/09 05:30:04;;;;;;;7.37;3.47;;;15.10;99.90;;;;;;5045850;28;20692;-47
2021/08/09 05:32:32;;;;;;;4.50;2.87;;;15.00;99.90;;;;;;5044452;28;20236;-47
2021/08/09 05:35:00;;;;;;;5.00;2.60;;;15.00;99.90;;;;;;5044829;28;20218;-48
2021/08/09 05:37:28;;;;;;;6.97;2.97;;;15.20;99.90;;;;;;5044408;28;20230;-47
2021/08/09 05:40:03;;;;;;;7.77;2.30;;;15.30;99.90;;;;;;5043633;28;20200;-48
2021/08/09 05:42:30;;;;;;;6.23;2.53;;;15.20;99.90;;;;;;5044390;28;20239;-48
2021/08/09 05:44:57;;;;;;;9.53;2.33;;;15.10;99.90;;;;;;5045053;28;20239;-47
2021/08/09 05:47:24;;;;;;;7.57;2.17;;;15.10;99.90;;;;;;5044625;28;20639;-47
2021/08/09 05:49:51;;;;;;;6.63;2.33;;;15.10;99.90;;;;;;5044519;28;20527;-47
2021/08/09 05:52:22;;;;;;;4.13;2.50;;;15.00;99.90;;;;;;5045094;28;20201;-47
2021/08/09 05:54:50;;;;;;;7.30;1.83;;;15.10;99.90;;;;;;5043132;28;20229;-48
2021/08/09 05:57:17;;;;;;;9.17;2.27;;;15.20;99.90;;;;;;5045290;28;20243;-47
2021/08/09 05:59:45;;;;;;;6.73;2.43;;;15.20;99.90;;;;;;5044473;28;20262;-48
2021/08/09 06:02:13;;;;;;;6.73;2.60;;;15.20;99.90;;;;;;5039589;28;20208;-47
2021/08/09 06:04:41;;;;;;;4.03;2.40;;;15.20;99.90;;;;;;5044133;28;20220;-50
2021/08/09 06:07:14;;;;;;;5.13;2.90;;;15.20;99.90;;;;;;5044439;28;20204;-48
2021/08/09 06:09:42;;;;;;;5.53;2.87;;;15.40;99.90;;;;;;5044581;28;20240;-48
2021/08/09 06:12:10;;;;;;;4.47;2.50;;;15.40;99.90;;;;;;5045982;28;20235;-48
2021/08/09 06:14:36;;;;;;;6.53;2.80;;;15.50;99.90;;;;;;5047940;28;20286;-47
2021/08/09 06:17:05;;;;;;;7.00;2.80;;;15.50;99.90;;;;;;5047300;28;20200;-47
2021/08/09 06:19:34;;;;;;;7.17;2.43;;;15.40;99.90;;;;;;5049158;28;20212;-47
2021/08/09 06:22:01;;;;;;;6.30;2.80;;;15.50;99.90;;;;;;5048209;28;20239;-47
2021/08/09 06:24:28;;;;;;;7.77;2.80;;;15.70;99.90;;;;;;5048439;28;20640;-48
2021/08/09 06:26:55;;;;;;;7.03;2.80;;;15.70;99.90;;;;;;5048431;28;20289;-48
2021/08/09 06:29:21;;;;;;;9.13;2.10;;;15.70;99.90;;;;;;5049150;28;20308;-48
2021/08/09 06:31:48;;;;;;;3.63;2.10;;;15.70;99.90;;;;;;5049385;28;20314;-47
2021/08/09 06:34:15;;;;;;;7.70;2.50;;;15.80;99.90;;;;;;5048854;28;20703;-48
2021/08/09 06:36:42;;;;;;;6.03;2.27;;;15.90;99.90;;;;;;5049022;28;20248;-47
2021/08/09 06:39:11;;;;;;;5.10;2.40;;;16.00;99.90;;;;;;5048224;28;20303;-47
2021/08/09 06:41:38;;;;;;;8.20;2.20;;;16.10;99.90;;;;;;5048514;28;20283;-47
2021/08/09 06:44:05;;;;;;;5.80;2.40;;;16.20;99.90;;;;;;5048348;28;20286;-48
2021/08/09 06:46:31;;;;;;;9.73;3.83;;;16.10;99.90;;;;;;5049130;28;20295;-47
2021/08/09 06:48:58;;;;;;;4.70;2.47;;;16.20;99.90;;;;;;5048231;28;20243;-48
2021/08/09 06:51:25;;;;;;;8.10;2.50;;;16.30;99.90;;;;;;5048565;28;20693;-47
2021/08/09 06:53:52;;;;;;;5.80;2.47;;;16.40;99.90;;;;;;5047001;28;20246;-48
2021/08/09 06:56:19;;;;;;;5.27;2.23;;;16.50;99.90;;;;;;5048539;28;20296;-48
2021/08/09 06:58:45;;;;;;;5.13;2.70;;;16.70;99.90;;;;;;5047855;28;20282;-48
2021/08/09 07:01:12;;;;;;;3.33;2.20;;;16.70;99.90;;;;;;5047701;28;20236;-49
2021/08/09 07:03:42;;;;;;;6.30;2.20;;;16.80;99.90;;;;;;5039452;28;20220;-48
2021/08/09 07:06:21;;;;;;;6.53;2.60;;;17.00;99.90;;;;;;5048111;28;20209;-47
2021/08/09 07:08:52;;;;;;;4.93;2.33;;;17.00;99.90;;;;;;5048238;28;20320;-48
2021/08/09 07:11:19;;;;;;;11.00;2.57;;;17.20;99.90;;;;;;5048430;28;20204;-48
2021/08/09 07:13:46;;;;;;;2.93;2.00;;;17.30;99.90;;;;;;5047379;28;20259;-48
2021/08/09 07:16:13;;;;;;;4.97;2.60;;;17.40;99.90;;;;;;5047926;28;20206;-48
2021/08/09 07:18:40;;;;;;;5.40;2.07;;;17.30;99.90;;;;;;5047196;28;20773;-48
2021/08/09 07:21:12;;;;;;;6.57;1.87;;;17.50;99.90;;;;;;5047803;28;20717;-48
2021/08/09 07:23:39;;;;;;;5.97;2.00;;;17.60;99.90;;;;;;5046748;28;20629;-48
2021/08/09 07:26:06;;;;;;;3.43;2.07;;;17.60;99.90;;;;;;5047992;28;20243;-47
2021/08/09 07:28:33;;;;;;;5.80;2.07;;;17.50;99.90;;;;;;5048174;28;20289;-48
2021/08/09 07:31:00;;;;;;;8.97;2.13;;;17.60;99.90;;;;;;5047526;28;20199;-48
2021/08/09 07:33:27;;;;;;;6.80;2.03;;;17.70;99.90;;;;;;5047197;28;20211;-48
2021/08/09 07:35:54;;;;;;;5.03;1.80;;;17.80;99.90;;;;;;5046784;28;20619;-47
2021/08/09 07:38:21;;;;;;;5.33;1.83;;;18.00;99.90;;;;;;5048240;28;20257;-48
2021/08/09 07:40:48;;;;;;;3.83;1.53;;;18.00;55.30;;;;;;5046409;28;20255;-48
2021/08/09 07:43:14;;;;;;;7.73;2.03;;;18.10;44.50;;;;;;5047301;28;20211;-48
2021/08/09 07:45:41;;;;;;;10.37;2.40;;;18.10;40.80;;;;;;5047039;28;20351;-50
2021/08/09 07:48:08;;;;;;;3.07;1.70;;;18.20;21.90;;;;;;5046929;28;20285;-48
2021/08/09 07:50:35;;;;;;;3.40;1.60;;;18.30;23.30;;;;;;5046253;28;20241;-48
2021/08/09 07:53:02;;;;;;;4.23;1.60;;;18.30;1.00;;;;;;5046617;28;20390;-48
2021/08/09 07:55:29;;;;;;;4.33;1.47;;;18.30;1.00;;;;;;5046632;28;20693;-48
2021/08/09 07:57:56;;;;;;;5.33;1.77;;;18.30;1.00;;;;;;5045445;28;20200;-47
2021/08/09 08:00:22;;;;;;;3.03;1.43;;;18.40;1.00;;;;;;5047223;28;20279;-48
2021/08/09 08:02:50;;;;;;;7.73;2.07;;;18.60;1.00;;;;;;5046809;28;20255;-48
2021/08/09 08:05:17;;;;;;;4.70;1.60;;;18.90;17.30;;;;;;5046797;28;20256;-48
2021/08/09 08:07:44;;;;;;;3.97;1.70;;;18.90;1.00;;;;;;5047607;28;20637;-48
2021/08/09 08:10:11;;;;;;;6.10;2.60;;;19.00;1.00;;;;;;5047389;28;20580;-48
2021/08/09 08:12:39;;;;;;;4.90;1.73;;;19.00;1.00;;;;;;5047195;28;20272;-48
2021/08/09 08:15:07;;;;;;;3.43;1.20;;;19.10;1.00;;;;;;5045842;28;20211;-48
2021/08/09 08:17:34;;;;;;;3.70;1.10;;;19.10;1.00;;;;;;5046665;28;20274;-47
2021/08/09 08:20:02;;;;;;;5.03;1.47;;;19.00;1.00;;;;;;5045939;28;20734;-48
2021/08/09 08:22:29;;;;;;;5.43;1.70;;;18.90;1.00;;;;;;5046388;28;20209;-48
2021/08/09 08:24:56;;;;;;;2.60;1.30;;;18.80;1.00;;;;;;5046485;28;20261;-48
2021/08/09 08:27:22;;;;;;;5.13;1.40;;;18.80;1.00;;;;;;5045054;28;20237;-47
2021/08/09 08:29:49;;;;;;;4.57;1.43;;;18.80;1.00;;;;;;5046866;28;20638;-48
2021/08/09 08:32:16;;;;;;;2.83;1.27;;;18.80;1.00;;;;;;5046219;28;20696;-48
2021/08/09 08:34:43;;;;;;;3.10;1.77;;;18.80;1.00;;;;;;5045933;28;20300;-48
2021/08/09 08:37:10;;;;;;;4.93;1.43;;;18.90;1.00;;;;;;5046223;28;20242;-48
2021/08/09 08:39:37;;;;;;;2.83;1.50;;;19.10;99.90;;;;;;5037149;28;20199;-48
2021/08/09 08:42:04;;;;;;;5.00;1.73;;;19.10;1.00;;;;;;5046302;28;20262;-48
2021/08/09 08:44:31;;;;;;;4.23;1.63;;;19.20;99.90;;;;;;5046312;28;20706;-48
2021/08/09 08:46:58;;;;;;;5.63;2.17;;;19.50;1.00;;;;;;5046785;28;20218;-47
2021/08/09 08:49:26;;;;;;;3.70;1.80;;;19.50;1.00;;;;;;5045561;28;20202;-48
2021/08/09 08:51:53;;;;;;;4.40;1.93;;;19.30;1.00;;;;;;5046637;28;20313;-48
2021/08/09 08:54:20;;;;;;;4.00;1.70;;;19.00;1.00;;;;;;5044194;28;20732;-48
2021/08/09 08:56:47;;;;;;;3.73;1.60;;;18.80;1.00;;;;;;5045073;28;20301;-48
2021/08/09 08:59:19;;;;;;;5.60;1.40;;;18.80;1.00;;;;;;5045494;28;20207;-48
2021/08/09 09:01:48;;;;;;;2.47;1.53;;;18.70;1.00;;;;;;5045785;28;20211;-48
2021/08/09 09:04:33;;;;;;;2.40;1.53;;;18.90;1.00;;;;;;5044861;28;20229;-48
2021/08/09 09:07:08;;;;;;;5.40;1.70;;;19.30;1.00;;;;;;5045463;28;20216;-48
2021/08/09 09:09:37;;;;;;;3.27;1.50;;;19.60;1.00;;;;;;5045682;28;20218;-48
2021/08/09 09:12:13;;;;;;;4.13;1.67;;;19.90;1.00;;;;;;5045707;28;20310;-48
2021/08/09 09:14:41;;;;;;;3.60;1.50;;;20.20;1.00;;;;;;5045260;28;20217;-48
2021/08/09 09:17:08;;;;;;;2.80;1.20;;;19.70;1.00;;;;;;5045363;28;20203;-48
2021/08/09 09:19:44;;;;;;;3.67;1.67;;;19.60;1.00;;;;;;5044995;28;20242;-48
2021/08/09 09:22:22;;;;;;;4.33;1.50;;;19.40;99.90;;;;;;5045968;28;20256;-48
2021/08/09 09:24:55;;;;;;;5.47;1.77;;;19.40;99.90;;;;;;5045436;28;20586;-48
2021/08/09 09:27:32;;;;;;;4.40;1.33;;;19.50;90.50;;;;;;5045239;28;20303;-48
2021/08/09 09:30:20;;;;;;;4.67;1.33;;;19.40;20.80;;;;;;5045589;28;20281;-48
2021/08/09 09:33:04;;;;;;;3.43;1.50;;;19.40;99.90;;;;;;5045690;28;20234;-48
2021/08/09 09:35:36;;;;;;;3.07;1.10;;;19.20;1.00;;;;;;5046423;28;20515;-48
2021/08/09 09:38:02;;;;;;;3.67;1.33;;;19.20;1.00;;;;;;5045987;28;20635;-48
2021/08/09 09:40:42;;;;;;;1.73;1.13;;;19.20;7.40;;;;;;5045422;28;20212;-48
2021/08/09 09:43:20;;;;;;;2.70;1.10;;;19.30;92.90;;;;;;5046357;28;20572;-48
2021/08/09 09:45:55;;;;;;;1.23;0.70;;;19.30;99.90;;;;;;5044936;28;20285;-48
2021/08/09 09:48:38;;;;;;;2.77;1.00;;;19.20;99.90;;;;;;5049153;28;20205;-48
2021/08/09 09:51:13;;;;;;;2.93;1.23;;;19.10;1.00;;;;;;5049100;28;20214;-48
2021/08/09 09:53:42;;;;;;;4.47;1.10;;;19.10;1.00;;;;;;5048007;28;20242;-48
2021/08/09 09:56:09;;;;;;;4.50;1.10;;;19.20;1.00;;;;;;5048853;28;20730;-49
2021/08/09 09:58:38;;;;;;;2.07;0.97;;;19.20;1.00;;;;;;5048279;28;20199;-48
2021/08/09 10:01:07;;;;;;;4.10;1.23;;;19.30;2.50;;;;;;5049112;28;20203;-48
2021/08/09 10:03:36;;;;;;;3.17;1.37;;;19.20;99.90;;;;;;5049699;28;20217;-48
2021/08/09 10:06:03;;;;;;;1.63;1.00;;;19.20;1.00;;;;;;5048631;28;20653;-48
2021/08/09 10:08:43;;;;;;;2.57;1.23;;;19.40;1.00;;;;;;5048527;28;20231;-48
2021/08/09 10:11:11;;;;;;;3.37;1.10;;;19.40;1.00;;;;;;5050056;28;20332;-48
2021/08/09 10:13:39;;;;;;;1.50;0.87;;;19.60;1.00;;;;;;5049168;28;20280;-47
2021/08/09 10:16:08;;;;;;;1.37;1.00;;;19.50;99.90;;;;;;5049157;28;20277;-48
2021/08/09 10:18:39;;;;;;;2.40;1.20;;;19.10;61.60;;;;;;5048626;28;20333;-48
2021/08/09 10:21:06;;;;;;;1.33;0.80;;;19.00;1.00;;;;;;5048883;28;20286;-48
2021/08/09 10:23:35;;;;;;;3.07;1.10;;;19.00;1.00;;;;;;5048417;28;20702;-48
2021/08/09 10:26:03;;;;;;;5.20;1.00;;;19.10;1.00;;;;;;5048418;28;20278;-48
2021/08/09 10:28:52;;;;;;;3.53;1.10;;;19.20;1.00;;;;;;5049019;28;20207;-48
2021/08/09 10:31:36;;;;;;;4.00;1.30;;;19.10;1.00;;;;;;5049215;28;20655;-48
2021/08/09 10:34:06;;;;;;;3.73;1.20;;;18.90;1.00;;;;;;5048232;28;20207;-48
2021/08/09 10:37:04;;;;;;;2.50;1.00;;;19.10;20.30;;;;;;5048938;28;20613;-48
2021/08/09 10:39:51;;;;;;;3.77;1.27;;;19.10;1.00;;;;;;5047795;28;20247;-48
2021/08/09 10:42:36;;;;;;;2.67;1.13;;;19.30;1.00;;;;;;5048090;28;20235;-47
2021/08/09 10:45:10;;;;;;;2.97;1.10;;;19.50;1.00;;;;;;5048879;28;20324;-47
2021/08/09 10:47:47;;;;;;;2.83;0.93;;;19.70;1.00;;;;;;5048342;28;20233;-48
2021/08/09 10:50:34;;;;;;;2.37;1.00;;;19.40;99.90;;;;;;5048071;28;20261;-48
2021/08/09 10:53:01;;;;;;;6.23;1.00;;;19.20;99.90;;;;;;5047795;28;20340;-48
2021/08/09 10:55:30;;;;;;;2.67;1.33;;;19.30;1.00;;;;;;5046148;28;20207;-48
2021/08/09 10:57:58;;;;;;;3.70;1.20;;;19.10;1.00;;;;;;5047736;28;20307;-48
2021/08/09 11:00:40;;;;;;;3.40;0.80;;;19.10;99.90;;;;;;5047644;28;20207;-48
2021/08/09 11:03:18;;;;;;;3.07;0.93;;;19.40;1.00;;;;;;5048466;28;20301;-48
2021/08/09 11:05:46;;;;;;;2.20;1.00;;;19.30;1.00;;;;;;5046872;28;20318;-48
2021/08/09 11:08:16;;;;;;;1.73;1.37;;;19.20;1.00;;;;;;5048655;28;20238;-48
2021/08/09 11:10:53;;;;;;;2.20;1.10;;;19.20;99.90;;;;;;5048149;28;20206;-48
2021/08/09 11:13:27;;;;;;;2.17;0.87;;;19.40;1.00;;;;;;5047921;28;20239;-48
2021/08/09 11:15:59;;;;;;;1.87;0.93;;;19.30;1.00;;;;;;5048520;28;20214;-49
2021/08/09 11:18:28;;;;;;;3.10;1.03;;;19.30;99.90;;;;;;5046957;28;20213;-48
2021/08/09 11:21:09;;;;;;;3.17;1.13;;;19.30;99.90;;;;;;5047401;28;20607;-49
2021/08/09 11:23:40;;;;;;;3.90;0.70;;;19.40;1.00;;;;;;5046825;28;20207;-49
2021/08/09 11:26:18;;;;;;;1.70;1.00;;;19.40;1.00;;;;;;5047718;28;20247;-48
2021/08/09 11:29:06;;;;;;;3.43;1.10;;;19.40;1.00;;;;;;5047779;28;20701;-48
2021/08/09 11:31:47;;;;;;;3.43;1.03;;;19.40;1.00;;;;;;5047533;28;20691;-48
2021/08/09 11:34:14;;;;;;;2.60;0.80;;;19.40;1.00;;;;;;5047955;28;20257;-47
2021/08/09 11:36:42;;;;;;;1.57;0.83;;;19.50;99.90;;;;;;5048391;28;20325;-48
2021/08/09 11:39:12;;;;;;;1.73;0.87;;;19.50;1.00;;;;;;5047407;28;20200;-48
2021/08/09 11:41:40;;;;;;;1.20;0.70;;;19.30;99.90;;;;;;5048452;28;20209;-49
2021/08/09 11:44:10;;;;;;;2.23;1.00;;;19.50;3.00;;;;;;5047492;28;20678;-48
2021/08/09 11:46:50;;;;;;;2.17;1.00;;;19.80;1.00;;;;;;5047212;28;20298;-48
2021/08/09 11:49:19;;;;;;;1.87;1.00;;;20.10;1.00;;;;;;5047039;28;20729;-48
2021/08/09 11:51:46;;;;;;;5.07;1.13;;;20.20;1.00;;;;;;5047165;28;20238;-48
2021/08/09 11:54:13;;;;;;;4.43;1.07;;;20.50;1.00;;;;;;5046027;28;20283;-49
2021/08/09 11:56:43;;;;;;;2.83;1.10;;;20.30;68.50;;;;;;5038052;28;20306;-48
2021/08/09 11:59:14;;;;;;;2.87;1.07;;;20.40;1.00;;;;;;5046999;28;20258;-48
2021/08/09 12:01:43;;;;;;;1.80;1.10;;;20.60;1.00;;;;;;5046328;28;20209;-48
2021/08/09 12:04:15;;;;;;;1.40;1.10;;;20.70;1.00;;;;;;5046967;28;20270;-49
2021/08/09 12:06:52;;;;;;;3.40;1.27;;;20.50;1.00;;;;;;5046824;28;20215;-48
2021/08/09 12:09:24;;;;;;;1.37;0.87;;;20.90;1.00;;;;;;5047190;28;20301;-49
2021/08/09 12:12:00;;;;;;;1.47;1.00;;;21.20;99.90;;;;;;5047597;28;20202;-48
2021/08/09 12:14:28;;;;;;;2.83;1.10;;;20.70;99.90;;;;;;5046135;28;20209;-49
2021/08/09 12:16:57;;;;;;;3.63;1.13;;;20.80;1.00;;;;;;5046160;28;20202;-48
2021/08/09 12:19:35;;;;;;;2.60;0.87;;;20.80;1.00;;;;;;5046282;28;20239;-48
2021/08/09 12:22:15;;;;;;;3.80;1.10;;;21.10;1.00;;;;;;5046257;28;20232;-48
2021/08/09 12:25:01;;;;;;;3.27;1.00;;;20.90;1.00;;;;;;5046106;28;20769;-48
2021/08/09 12:27:33;;;;;;;5.47;1.57;;;20.80;4.50;;;;;;5047476;28;20653;-48
2021/08/09 12:30:17;;;;;;;1.17;1.00;;;21.20;1.00;;;;;;5046265;28;20202;-48
2021/08/09 12:33:03;;;;;;;4.10;1.07;;;21.40;1.00;;;;;;5046527;28;20259;-48
2021/08/09 12:35:41;;;;;;;1.17;1.00;;;21.30;1.00;;;;;;5045912;28;20212;-48
2021/08/09 12:38:09;;;;;;;1.50;1.10;;;21.00;1.00;;;;;;5046323;28;20230;-48
2021/08/09 12:40:49;;;;;;;3.03;1.10;;;20.70;1.00;;;;;;5045069;28;20246;-48
2021/08/09 12:43:18;;;;;;;3.03;1.07;;;20.60;1.00;;;;;;5045909;28;20237;-49
2021/08/09 12:45:46;;;;;;;2.83;1.10;;;20.60;1.00;;;;;;5045787;28;20253;-48
2021/08/09 12:48:14;;;;;;;1.10;1.00;;;21.00;1.00;;;;;;5046656;28;20206;-48
2021/08/09 12:50:43;;;;;;;1.83;0.80;;;21.10;1.00;;;;;;5046486;28;20205;-48
2021/08/09 12:53:11;;;;;;;2.90;1.30;;;21.30;1.00;;;;;;5045895;28;21182;-48
2021/08/09 12:55:38;;;;;;;1.27;0.97;;;21.50;99.90;;;;;;5044143;28;20326;-48
2021/08/09 12:58:08;;;;;;;1.47;1.20;;;21.40;99.90;;;;;;5046562;28;20244;-48
2021/08/09 13:00:35;;;;;;;1.53;1.00;;;21.10;1.00;;;;;;5045787;28;21036;-48
2021/08/09 13:03:03;;;;;;;3.50;1.43;;;21.10;30.40;;;;;;5046058;28;20207;-48
2021/08/09 13:05:30;;;;;;;1.93;1.00;;;20.90;1.00;;;;;;5045378;28;20631;-48